Maldives Meteorological Service

SYNOP

Station Code SYNOP
43555
AAXX 28004 43555 11462 72520 10289 20259 30071 40073 60042 70282 83232 333 58007 70005 83817 87077=
43533
AAXX 28004 43533 11456 83220 10260 20249 30064 40066 60042 78086 8697/ 333 58009 70007 83817 83918 87460=
43577
AAXX 28004 43577 11459 72510 10286 20252 30086 40088 69922 78022 83938 333 58004 70017 82818 81919 87276=
43588
AAXX 28004 43588 12462 62710 10284 20250 30087 40088 69952 82202 333 58008 79999 82818 86076=
43599
AAXX 28004 43599 12462 72714 10287 20244 30087 40089 60002 83202 333 58005 79999 83818 87076=
Last Updated : 2018-05-28 05:00:10